createdAt,value
2022-12-29T00:00:20.293Z,1.90
2022-12-29T00:02:47.600Z,2.20
2022-12-29T00:05:14.793Z,2.60
2022-12-29T00:07:41.818Z,2.80
2022-12-29T00:10:09.091Z,2.20
2022-12-29T00:12:54.654Z,2.40
2022-12-29T00:15:40.274Z,2.20
2022-12-29T00:18:08.506Z,1.98
2022-12-29T00:20:56.222Z,2.05
2022-12-29T00:23:42.057Z,1.83
2022-12-29T00:26:36.989Z,2.22
2022-12-29T00:29:33.931Z,1.50
2022-12-29T00:32:19.827Z,1.75
2022-12-29T00:35:05.707Z,1.80
2022-12-29T00:37:51.623Z,1.92
2022-12-29T00:40:37.109Z,1.50
2022-12-29T00:43:22.810Z,1.60
2022-12-29T00:45:49.816Z,1.92
2022-12-29T00:48:36.874Z,1.42
2022-12-29T00:51:04.060Z,1.42
2022-12-29T00:53:31.112Z,1.27
2022-12-29T00:55:58.101Z,1.52
2022-12-29T00:58:27.560Z,1.80
2022-12-29T01:01:10.500Z,1.55
2022-12-29T01:03:38.881Z,1.25
2022-12-29T01:06:08.964Z,1.92
2022-12-29T01:08:38.320Z,1.50
2022-12-29T01:11:13.134Z,1.67
2022-12-29T01:13:42.045Z,1.23
2022-12-29T01:16:09.171Z,1.10
2022-12-29T01:18:36.249Z,1.10
2022-12-29T01:21:07.489Z,1.80
2022-12-29T01:23:34.520Z,1.25
2022-12-29T01:26:12.458Z,1.40
2022-12-29T01:28:42.731Z,1.55
2022-12-29T01:31:15.171Z,1.27
2022-12-29T01:33:43.261Z,1.55
2022-12-29T01:36:13.819Z,1.40
2022-12-29T01:38:42.564Z,1.52
2022-12-29T01:41:11.593Z,1.33
2022-12-29T01:43:48.613Z,1.52
2022-12-29T01:46:44.619Z,1.90
2022-12-29T01:49:25.223Z,1.60
2022-12-29T01:51:59.988Z,1.58
2022-12-29T01:54:39.894Z,1.17
2022-12-29T01:57:12.100Z,1.00
2022-12-29T01:59:44.801Z,1.83
2022-12-29T02:02:12.284Z,1.30
2022-12-29T02:04:45.388Z,1.40
2022-12-29T02:07:19.123Z,1.55
2022-12-29T02:09:56.451Z,1.42
2022-12-29T02:12:24.801Z,1.45
2022-12-29T02:14:56.648Z,1.40
2022-12-29T02:17:23.519Z,2.28
2022-12-29T02:20:24.467Z,1.83
2022-12-29T02:23:21.671Z,1.38
2022-12-29T02:26:13.508Z,1.60
2022-12-29T02:28:59.507Z,1.50
2022-12-29T02:31:52.914Z,1.60
2022-12-29T02:34:19.874Z,1.33
2022-12-29T02:37:01.493Z,1.83
2022-12-29T02:39:56.731Z,1.58
2022-12-29T02:42:29.903Z,1.88
2022-12-29T02:45:35.922Z,1.45
2022-12-29T02:48:18.588Z,1.65
2022-12-29T02:50:56.443Z,1.50
2022-12-29T02:54:01.114Z,1.85
2022-12-29T02:56:28.213Z,1.80
2022-12-29T02:58:55.223Z,1.98
2022-12-29T03:02:04.190Z,1.80
2022-12-29T03:04:55.971Z,1.80
2022-12-29T03:07:40.738Z,1.73
2022-12-29T03:10:23.311Z,1.52
2022-12-29T03:13:20.443Z,1.63
2022-12-29T03:16:08.362Z,1.33
2022-12-29T03:18:57.865Z,2.03
2022-12-29T03:21:58.628Z,2.33
2022-12-29T03:24:31.285Z,2.38
2022-12-29T03:27:02.246Z,2.53
2022-12-29T03:29:40.919Z,1.48
2022-12-29T03:32:13.190Z,2.17
2022-12-29T03:34:40.844Z,2.50
2022-12-29T03:37:15.926Z,2.20
2022-12-29T03:39:43.349Z,2.03
2022-12-29T03:42:22.852Z,2.33
2022-12-29T03:44:54.047Z,2.10
2022-12-29T03:47:21.823Z,2.40
2022-12-29T03:49:49.971Z,2.25
2022-12-29T03:52:17.651Z,1.83
2022-12-29T03:54:46.707Z,2.28
2022-12-29T03:57:14.347Z,2.47
2022-12-29T04:00:08.721Z,2.05
2022-12-29T04:02:51.059Z,2.28
2022-12-29T04:05:21.563Z,1.98
2022-12-29T04:07:50.491Z,2.42
2022-12-29T04:10:17.876Z,1.98
2022-12-29T04:12:47.692Z,1.95
2022-12-29T04:15:15.362Z,2.00
2022-12-29T04:17:42.801Z,2.55
2022-12-29T04:20:28.730Z,1.90
2022-12-29T04:23:05.049Z,2.17
2022-12-29T04:25:34.248Z,2.20
2022-12-29T04:28:02.120Z,2.22
2022-12-29T04:30:48.402Z,1.92
2022-12-29T04:33:22.133Z,2.00
2022-12-29T04:35:49.353Z,2.40
2022-12-29T04:38:17.483Z,1.92
2022-12-29T04:40:47.710Z,2.30
2022-12-29T04:43:16.837Z,2.63
2022-12-29T04:46:20.719Z,2.40
2022-12-29T04:48:53.091Z,2.08
2022-12-29T04:51:38.457Z,2.63
2022-12-29T04:54:06.887Z,2.30
2022-12-29T04:56:34.448Z,2.45
2022-12-29T04:59:01.482Z,2.42
2022-12-29T05:01:28.644Z,2.47
2022-12-29T05:03:55.811Z,2.22
2022-12-29T05:06:23.528Z,3.08
2022-12-29T05:08:50.753Z,2.75
2022-12-29T05:11:17.929Z,2.42
2022-12-29T05:13:47.771Z,2.80
2022-12-29T05:18:43.855Z,2.20
2022-12-29T05:21:11.403Z,3.17
2022-12-29T05:23:40.868Z,2.08
2022-12-29T05:26:07.975Z,2.50
2022-12-29T05:28:57.004Z,2.90
2022-12-29T05:31:23.998Z,3.75
2022-12-29T05:33:51.185Z,3.47
2022-12-29T05:36:18.824Z,3.70
2022-12-29T05:38:53.041Z,3.17
2022-12-29T05:41:20.405Z,3.40
2022-12-29T05:44:07.810Z,3.28
2022-12-29T05:46:48.276Z,2.85
2022-12-29T05:49:33.919Z,3.10
2022-12-29T05:52:09.947Z,2.80
2022-12-29T05:54:37.334Z,2.95
2022-12-29T05:57:10.069Z,3.75
2022-12-29T05:59:38.609Z,3.55
2022-12-29T06:02:06.095Z,3.42
2022-12-29T06:04:33.596Z,3.28
2022-12-29T06:07:00.782Z,1.95
2022-12-29T06:09:39.097Z,2.83
2022-12-29T06:12:07.314Z,3.10
2022-12-29T06:14:34.563Z,2.83
2022-12-29T06:17:03.867Z,2.60
2022-12-29T06:19:30.937Z,2.55
2022-12-29T06:21:58.005Z,3.38
2022-12-29T06:24:25.037Z,2.88
2022-12-29T06:26:53.093Z,2.83
2022-12-29T06:29:21.669Z,3.17
2022-12-29T06:31:49.939Z,2.90
2022-12-29T06:34:17.077Z,2.90
2022-12-29T06:36:44.458Z,2.55
2022-12-29T06:39:11.910Z,3.03
2022-12-29T06:41:39.046Z,3.50
2022-12-29T06:44:31.101Z,3.33
2022-12-29T06:47:01.454Z,3.42
2022-12-29T06:49:28.480Z,3.35
2022-12-29T06:51:55.466Z,3.35
2022-12-29T06:54:22.461Z,3.40
2022-12-29T06:56:49.477Z,4.55
2022-12-29T06:59:16.481Z,4.20
2022-12-29T07:01:44.495Z,3.75
2022-12-29T07:04:11.561Z,3.67
2022-12-29T07:06:38.631Z,3.45
2022-12-29T07:09:05.595Z,3.42
2022-12-29T07:11:32.627Z,3.50
2022-12-29T07:14:05.202Z,3.28
2022-12-29T07:16:33.692Z,3.80
2022-12-29T07:19:01.324Z,3.40
2022-12-29T07:21:28.412Z,3.25
2022-12-29T07:23:55.920Z,2.67
2022-12-29T07:26:23.171Z,3.38
2022-12-29T07:28:50.165Z,3.78
2022-12-29T07:31:20.169Z,2.95
2022-12-29T07:33:48.682Z,19.13
2022-12-29T07:36:16.872Z,4.72
2022-12-29T07:38:44.396Z,2.92
2022-12-29T07:41:11.422Z,3.58
2022-12-29T07:43:38.670Z,3.97
2022-12-29T07:46:55.133Z,3.58
2022-12-29T07:49:17.623Z,3.70
2022-12-29T07:51:44.702Z,3.63
2022-12-29T07:54:13.160Z,3.22
2022-12-29T07:56:40.189Z,3.00
2022-12-29T07:59:07.229Z,3.55
2022-12-29T08:01:34.312Z,3.33
2022-12-29T08:04:01.584Z,3.10
2022-12-29T08:06:29.781Z,4.18
2022-12-29T08:08:57.360Z,3.60
2022-12-29T08:11:25.279Z,3.47
2022-12-29T08:13:52.297Z,3.63
2022-12-29T08:16:19.405Z,3.17
2022-12-29T08:18:46.538Z,3.83
2022-12-29T08:21:13.576Z,3.58
2022-12-29T08:23:40.579Z,4.15
2022-12-29T08:26:07.607Z,4.28
2022-12-29T08:28:34.627Z,4.15
2022-12-29T08:31:02.733Z,4.30
2022-12-29T08:33:30.300Z,4.45
2022-12-29T08:36:01.810Z,3.97
2022-12-29T08:38:30.204Z,4.88
2022-12-29T08:40:59.036Z,4.25
2022-12-29T08:43:26.579Z,5.03
2022-12-29T08:45:53.664Z,4.72
2022-12-29T08:48:23.233Z,7.47
2022-12-29T08:50:51.235Z,7.75
2022-12-29T08:53:19.324Z,5.80
2022-12-29T08:55:47.651Z,5.38
2022-12-29T08:58:17.565Z,6.18
2022-12-29T09:03:12.660Z,5.63
2022-12-29T09:05:39.734Z,6.72
2022-12-29T09:08:06.818Z,9.63
2022-12-29T09:10:33.886Z,14.45
2022-12-29T09:13:01.213Z,6.20
2022-12-29T09:15:28.435Z,5.50
2022-12-29T09:17:56.403Z,5.78
2022-12-29T09:20:23.825Z,5.32
2022-12-29T09:22:50.907Z,6.90
2022-12-29T09:25:18.088Z,7.55
2022-12-29T09:27:45.161Z,5.55
2022-12-29T09:30:15.481Z,5.00
2022-12-29T09:32:45.443Z,5.85
2022-12-29T09:35:14.616Z,5.93
2022-12-29T09:37:41.617Z,5.25
2022-12-29T09:40:19.460Z,5.53
2022-12-29T09:42:53.437Z,5.60
2022-12-29T09:45:29.005Z,5.25
2022-12-29T09:47:56.188Z,4.82
2022-12-29T09:50:25.866Z,5.00
2022-12-29T09:53:07.065Z,4.78
2022-12-29T09:55:42.116Z,6.05
2022-12-29T09:58:22.579Z,5.28
2022-12-29T10:01:01.657Z,6.00
2022-12-29T10:03:42.196Z,5.55
2022-12-29T10:06:18.625Z,5.68
2022-12-29T10:09:19.329Z,6.72
2022-12-29T10:11:52.332Z,5.72
2022-12-29T10:14:42.126Z,6.70
2022-12-29T10:17:29.627Z,6.40
2022-12-29T10:20:14.855Z,5.95
2022-12-29T10:22:50.453Z,6.50
2022-12-29T10:27:51.047Z,6.05
2022-12-29T10:30:19.332Z,7.25
2022-12-29T10:32:59.709Z,6.82
2022-12-29T10:35:36.962Z,7.60
2022-12-29T10:38:12.397Z,7.13
2022-12-29T10:40:55.151Z,6.88
2022-12-29T10:43:28.103Z,7.70
2022-12-29T10:46:02.678Z,6.97
2022-12-29T10:48:32.684Z,7.10
2022-12-29T10:51:03.299Z,7.35
2022-12-29T10:53:56.797Z,7.03
2022-12-29T10:56:38.589Z,7.45
2022-12-29T10:59:20.301Z,6.88
2022-12-29T11:02:12.013Z,7.43
2022-12-29T11:05:05.350Z,6.40
2022-12-29T11:07:32.954Z,6.78
2022-12-29T11:10:21.186Z,7.20
2022-12-29T11:13:19.240Z,6.78
2022-12-29T11:15:48.298Z,7.22
2022-12-29T11:18:26.011Z,7.32
2022-12-29T11:21:01.506Z,7.00
2022-12-29T11:23:37.080Z,7.32
2022-12-29T11:26:22.239Z,6.40
2022-12-29T11:29:17.451Z,7.70
2022-12-29T11:32:26.119Z,7.70
2022-12-29T11:34:55.407Z,7.70
2022-12-29T11:37:28.052Z,8.70
2022-12-29T11:40:02.386Z,8.13
2022-12-29T11:42:49.860Z,7.90
2022-12-29T11:45:23.783Z,7.53
2022-12-29T11:47:58.335Z,8.50
2022-12-29T11:50:32.098Z,7.95
2022-12-29T11:53:06.906Z,7.45
2022-12-29T11:55:34.675Z,8.40
2022-12-29T11:58:05.331Z,7.88
2022-12-29T12:00:36.917Z,7.97
2022-12-29T12:03:22.093Z,7.25
2022-12-29T12:06:02.570Z,6.60
2022-12-29T12:08:53.289Z,7.10
2022-12-29T12:11:26.114Z,6.75
2022-12-29T12:14:13.076Z,6.90
2022-12-29T12:17:05.879Z,6.47
2022-12-29T12:19:48.105Z,6.53
2022-12-29T12:22:19.032Z,7.28
2022-12-29T12:24:51.486Z,6.97
2022-12-29T12:27:36.067Z,6.57
2022-12-29T12:30:16.777Z,6.10
2022-12-29T12:32:56.457Z,6.97
2022-12-29T12:35:41.796Z,10.85
2022-12-29T12:38:45.839Z,7.68
2022-12-29T12:41:21.569Z,7.28
2022-12-29T12:43:56.110Z,7.00
2022-12-29T12:46:44.353Z,6.53
2022-12-29T12:49:33.071Z,5.97
2022-12-29T12:52:23.051Z,6.55
2022-12-29T12:55:19.247Z,6.80
2022-12-29T12:58:13.213Z,6.90
2022-12-29T13:00:55.057Z,6.15
2022-12-29T13:03:48.843Z,7.03
2022-12-29T13:06:33.998Z,6.82
2022-12-29T13:09:16.135Z,5.97
2022-12-29T13:12:09.063Z,6.15
2022-12-29T13:15:21.588Z,6.47
2022-12-29T13:17:57.820Z,6.57
2022-12-29T13:20:41.166Z,6.72
2022-12-29T13:23:17.857Z,6.28
2022-12-29T13:26:23.347Z,5.93
2022-12-29T13:29:25.899Z,6.95
2022-12-29T13:32:30.211Z,7.20
2022-12-29T13:35:30.585Z,6.93
2022-12-29T13:38:20.923Z,7.55
2022-12-29T13:40:52.307Z,5.93
2022-12-29T13:43:21.291Z,6.97
2022-12-29T13:46:00.854Z,6.30
2022-12-29T13:48:44.620Z,6.68
2022-12-29T13:51:13.015Z,5.72
2022-12-29T13:53:54.955Z,7.95
2022-12-29T13:56:55.960Z,6.57
2022-12-29T13:59:42.763Z,6.20
2022-12-29T14:02:37.259Z,6.85
2022-12-29T14:05:26.695Z,7.07
2022-12-29T14:08:03.184Z,6.22
2022-12-29T14:10:36.367Z,6.40
2022-12-29T14:13:07.657Z,6.35
2022-12-29T14:15:42.143Z,6.70
2022-12-29T14:18:19.204Z,6.75
2022-12-29T14:20:57.072Z,7.68
2022-12-29T14:23:44.231Z,7.10
2022-12-29T14:26:16.167Z,7.25
2022-12-29T14:28:49.234Z,6.88
2022-12-29T14:31:16.280Z,8.55
2022-12-29T14:34:09.803Z,6.45
2022-12-29T14:39:25.759Z,7.07
2022-12-29T14:42:07.659Z,6.03
2022-12-29T14:44:35.434Z,7.20
2022-12-29T14:47:09.221Z,8.25
2022-12-29T14:49:45.514Z,7.75
2022-12-29T14:52:22.691Z,9.43
2022-12-29T14:55:43.523Z,8.75
2022-12-29T14:58:31.993Z,9.40
2022-12-29T15:01:01.435Z,9.68
2022-12-29T15:03:39.348Z,9.38
2022-12-29T15:06:12.476Z,9.77
2022-12-29T15:08:49.070Z,9.30
2022-12-29T15:11:24.791Z,9.45
2022-12-29T15:13:52.214Z,9.65
2022-12-29T15:16:30.183Z,9.15
2022-12-29T15:18:57.981Z,9.25
2022-12-29T15:21:31.392Z,9.50
2022-12-29T15:23:58.607Z,9.68
2022-12-29T15:26:38.334Z,10.20
2022-12-29T15:29:05.478Z,9.63
2022-12-29T15:31:32.657Z,10.05
2022-12-29T15:34:12.775Z,9.40
2022-12-29T15:36:42.507Z,10.20
2022-12-29T15:42:05.302Z,10.60
2022-12-29T15:44:42.094Z,10.80
2022-12-29T15:47:27.126Z,10.40
2022-12-29T15:49:59.492Z,10.73
2022-12-29T15:52:26.698Z,11.43
2022-12-29T15:54:54.934Z,11.20
2022-12-29T15:57:28.175Z,11.68
2022-12-29T15:59:55.539Z,11.65
2022-12-29T16:02:24.458Z,11.30
2022-12-29T16:05:16.523Z,10.35
2022-12-29T16:07:56.347Z,10.68
2022-12-29T16:10:37.907Z,10.65
2022-12-29T16:15:34.403Z,10.35
2022-12-29T16:18:01.646Z,9.80
2022-12-29T16:20:41.835Z,10.05
2022-12-29T16:23:21.962Z,9.38
2022-12-29T16:25:49.219Z,9.50
2022-12-29T16:28:44.328Z,10.60
2022-12-29T16:31:23.697Z,11.68
2022-12-29T16:33:55.978Z,10.32
2022-12-29T16:36:24.395Z,12.30
2022-12-29T16:38:51.587Z,11.00
2022-12-29T16:41:32.641Z,11.57
2022-12-29T16:44:23.250Z,12.10
2022-12-29T16:47:11.532Z,10.55
2022-12-29T16:49:41.653Z,10.80
2022-12-29T16:52:28.343Z,11.38
2022-12-29T16:55:04.341Z,11.73
2022-12-29T16:57:37.644Z,11.30
2022-12-29T17:00:08.483Z,11.35
2022-12-29T17:02:46.097Z,11.93
2022-12-29T17:05:18.478Z,13.80
2022-12-29T17:07:46.649Z,13.05
2022-12-29T17:10:16.883Z,11.43
2022-12-29T17:12:47.000Z,13.13
2022-12-29T17:15:27.937Z,12.25
2022-12-29T17:17:56.927Z,12.32
2022-12-29T17:20:27.508Z,13.05
2022-12-29T17:22:55.190Z,12.23
2022-12-29T17:25:29.994Z,13.82
2022-12-29T17:28:00.830Z,11.77
2022-12-29T17:30:33.810Z,12.55
2022-12-29T17:33:02.478Z,14.18
2022-12-29T17:35:29.460Z,14.50
2022-12-29T17:37:56.611Z,14.40
2022-12-29T17:40:27.762Z,15.05
2022-12-29T17:42:57.978Z,15.20
2022-12-29T17:45:27.615Z,14.60
2022-12-29T17:47:55.257Z,15.75
2022-12-29T17:50:27.097Z,14.32
2022-12-29T17:53:01.200Z,16.15
2022-12-29T17:55:36.656Z,13.68
2022-12-29T17:58:19.793Z,11.93
2022-12-29T18:00:52.519Z,14.50
2022-12-29T18:03:28.142Z,13.70
2022-12-29T18:05:56.103Z,12.65
2022-12-29T18:08:23.588Z,14.25
2022-12-29T18:10:55.287Z,13.27
2022-12-29T18:13:27.147Z,13.30
2022-12-29T18:15:57.291Z,14.98
2022-12-29T18:18:27.206Z,13.57
2022-12-29T18:20:59.062Z,14.55
2022-12-29T18:23:29.497Z,13.98
2022-12-29T18:25:59.475Z,15.38
2022-12-29T18:28:27.159Z,14.75
2022-12-29T18:30:55.899Z,13.80
2022-12-29T18:33:26.234Z,13.88
2022-12-29T18:36:05.459Z,13.18
2022-12-29T18:38:32.513Z,13.05
2022-12-29T18:41:00.766Z,13.30
2022-12-29T18:43:27.880Z,13.93
2022-12-29T18:45:54.960Z,13.07
2022-12-29T18:48:22.667Z,12.63
2022-12-29T18:50:52.023Z,13.65
2022-12-29T18:53:22.201Z,12.85
2022-12-29T18:55:49.470Z,13.25
2022-12-29T18:58:16.543Z,12.02
2022-12-29T19:00:45.197Z,13.13
2022-12-29T19:03:13.899Z,13.68
2022-12-29T19:05:43.243Z,12.20
2022-12-29T19:08:11.147Z,13.13
2022-12-29T19:10:39.775Z,13.35
2022-12-29T19:13:06.949Z,13.05
2022-12-29T19:15:38.030Z,11.80
2022-12-29T19:18:42.400Z,12.98
2022-12-29T19:20:56.941Z,13.18
2022-12-29T19:23:25.917Z,12.80
2022-12-29T19:25:55.006Z,14.05
2022-12-29T19:28:27.403Z,11.80
2022-12-29T19:30:58.387Z,11.35
2022-12-29T19:33:25.783Z,13.00
2022-12-29T19:35:53.242Z,12.68
2022-12-29T19:38:20.611Z,12.80
2022-12-29T19:40:50.691Z,13.32
2022-12-29T19:43:18.493Z,13.63
2022-12-29T19:45:45.831Z,14.57
2022-12-29T19:48:18.082Z,12.38
2022-12-29T19:50:45.640Z,15.27
2022-12-29T19:53:13.606Z,13.73
2022-12-29T19:55:47.950Z,13.52
2022-12-29T19:58:15.580Z,12.93
2022-12-29T20:00:43.639Z,12.88
2022-12-29T20:03:11.187Z,15.00
2022-12-29T20:05:39.383Z,12.13
2022-12-29T20:08:07.230Z,12.07
2022-12-29T20:10:34.263Z,12.90
2022-12-29T20:13:01.425Z,12.43
2022-12-29T20:15:28.419Z,13.13
2022-12-29T20:18:13.127Z,12.60
2022-12-29T20:20:41.208Z,12.88
2022-12-29T20:23:08.322Z,13.77
2022-12-29T20:25:44.896Z,12.88
2022-12-29T20:28:13.433Z,12.52
2022-12-29T20:30:40.557Z,13.73
2022-12-29T20:33:08.561Z,12.60
2022-12-29T20:35:36.849Z,12.23
2022-12-29T20:38:04.434Z,12.00
2022-12-29T20:40:31.581Z,12.18
2022-12-29T20:42:58.606Z,16.80
2022-12-29T20:45:26.064Z,12.57
2022-12-29T20:47:53.128Z,12.48
2022-12-29T20:50:20.140Z,11.32
2022-12-29T20:52:47.222Z,14.50
2022-12-29T20:55:14.689Z,12.75
2022-12-29T20:58:22.070Z,12.95
2022-12-29T21:00:32.977Z,12.25
2022-12-29T21:03:03.719Z,12.48
2022-12-29T21:05:30.820Z,11.73
2022-12-29T21:07:59.846Z,13.45
2022-12-29T21:10:27.113Z,17.95
2022-12-29T21:12:54.153Z,21.33
2022-12-29T21:15:21.239Z,14.57
2022-12-29T21:17:48.286Z,11.82
2022-12-29T21:20:20.301Z,13.95
2022-12-29T21:22:48.730Z,12.80
2022-12-29T21:25:16.005Z,12.10
2022-12-29T21:27:45.712Z,12.73
2022-12-29T21:32:40.775Z,12.73
2022-12-29T21:35:09.424Z,13.25
2022-12-29T21:37:36.871Z,16.08
2022-12-29T21:40:04.785Z,13.52
2022-12-29T21:42:32.184Z,13.10
2022-12-29T21:45:20.839Z,15.20
2022-12-29T21:48:07.148Z,12.68
2022-12-29T21:50:36.843Z,15.10
2022-12-29T21:53:03.812Z,15.82
2022-12-29T21:55:30.860Z,14.13
2022-12-29T21:58:16.254Z,14.98
2022-12-29T22:01:01.984Z,13.60
2022-12-29T22:03:47.709Z,15.00
2022-12-29T22:06:33.293Z,16.52
2022-12-29T22:09:20.618Z,14.52
2022-12-29T22:12:06.233Z,16.10
2022-12-29T22:14:33.237Z,16.48
2022-12-29T22:17:00.224Z,15.20
2022-12-29T22:19:27.216Z,18.63
2022-12-29T22:21:54.208Z,14.70
2022-12-29T22:24:21.225Z,14.38
2022-12-29T22:26:48.233Z,15.23
2022-12-29T22:29:15.223Z,14.85
2022-12-29T22:31:42.279Z,15.32
2022-12-29T22:34:11.005Z,14.20
2022-12-29T22:36:38.066Z,14.52
2022-12-29T22:39:05.063Z,14.38
2022-12-29T22:41:32.149Z,14.50
2022-12-29T22:43:59.200Z,13.05
2022-12-29T22:46:26.286Z,15.63
2022-12-29T22:48:53.357Z,13.23
2022-12-29T22:51:20.358Z,14.23
2022-12-29T22:53:51.438Z,14.02
2022-12-29T22:56:18.840Z,13.65
2022-12-29T22:58:48.012Z,14.65
2022-12-29T23:01:17.044Z,13.65
2022-12-29T23:03:44.788Z,14.13
2022-12-29T23:06:14.298Z,13.90
2022-12-29T23:08:41.382Z,13.88
2022-12-29T23:11:10.262Z,13.80
2022-12-29T23:13:38.295Z,13.65
2022-12-29T23:16:05.480Z,13.38
2022-12-29T23:18:32.656Z,14.32
2022-12-29T23:20:59.765Z,14.60
2022-12-29T23:23:49.189Z,13.85
2022-12-29T23:26:20.455Z,14.38
2022-12-29T23:28:48.392Z,13.90
2022-12-29T23:31:16.168Z,13.77
2022-12-29T23:33:43.295Z,12.68
2022-12-29T23:36:10.492Z,13.50
2022-12-29T23:38:37.542Z,12.80
2022-12-29T23:41:04.781Z,13.40
2022-12-29T23:43:32.248Z,14.82
2022-12-29T23:45:59.465Z,12.30
2022-12-29T23:48:26.497Z,13.25
2022-12-29T23:50:55.432Z,13.07
2022-12-29T23:53:22.434Z,13.52
2022-12-29T23:55:54.252Z,14.50
2022-12-29T23:58:21.882Z,12.93
